sensor_id;sensor_type;location;lat;lon;timestamp;pressure;altitude;pressure_sealevel;temperature;humidity
67840;BME280;54636;51.684;5.142;2023-02-03T00:00:53;102560.47;;;8.25;100.00
67840;BME280;54636;51.684;5.142;2023-02-03T00:03:18;102556.75;;;8.19;100.00
67840;BME280;54636;51.684;5.142;2023-02-03T00:05:44;102572.13;;;8.22;100.00
67840;BME280;54636;51.684;5.142;2023-02-03T00:08:11;102568.34;;;8.20;100.00
67840;BME280;54636;51.684;5.142;2023-02-03T00:10:38;102584.06;;;8.25;100.00
67840;BME280;54636;51.684;5.142;2023-02-03T00:13:05;102577.91;;;8.24;100.00
67840;BME280;54636;51.684;5.142;2023-02-03T00:15:31;102577.13;;;8.24;100.00
67840;BME280;54636;51.684;5.142;2023-02-03T00:17:56;102568.66;;;8.22;100.00
67840;BME280;54636;51.684;5.142;2023-02-03T00:20:22;102568.25;;;8.23;100.00
67840;BME280;54636;51.684;5.142;2023-02-03T00:22:47;102584.56;;;8.40;100.00
67840;BME280;54636;51.684;5.142;2023-02-03T00:25:13;102592.88;;;8.29;100.00
67840;BME280;54636;51.684;5.142;2023-02-03T00:27:38;102619.19;;;8.29;100.00
67840;BME280;54636;51.684;5.142;2023-02-03T00:30:04;102605.31;;;8.26;100.00
67840;BME280;54636;51.684;5.142;2023-02-03T00:32:30;102604.47;;;8.30;100.00
67840;BME280;54636;51.684;5.142;2023-02-03T00:34:55;102611.28;;;8.38;100.00
67840;BME280;54636;51.684;5.142;2023-02-03T00:37:21;102606.28;;;8.36;100.00
67840;BME280;54636;51.684;5.142;2023-02-03T00:39:48;102610.22;;;8.32;100.00
67840;BME280;54636;51.684;5.142;2023-02-03T00:42:13;102605.44;;;8.39;100.00
67840;BME280;54636;51.684;5.142;2023-02-03T00:44:39;102605.03;;;8.41;100.00
67840;BME280;54636;51.684;5.142;2023-02-03T00:47:04;102613.91;;;8.41;100.00
67840;BME280;54636;51.684;5.142;2023-02-03T00:49:29;102613.50;;;8.43;100.00
67840;BME280;54636;51.684;5.142;2023-02-03T00:51:56;102606.28;;;8.36;100.00
67840;BME280;54636;51.684;5.142;2023-02-03T00:54:21;102602.47;;;8.34;100.00
67840;BME280;54636;51.684;5.142;2023-02-03T00:56:46;102622.38;;;8.43;100.00
67840;BME280;54636;51.684;5.142;2023-02-03T00:59:12;102620.09;;;8.42;100.00
67840;BME280;54636;51.684;5.142;2023-02-03T01:01:37;102627.53;;;8.38;100.00
67840;BME280;54636;51.684;5.142;2023-02-03T01:04:03;102635.56;;;8.41;100.00
67840;BME280;54636;51.684;5.142;2023-02-03T01:06:29;102628.38;;;8.51;100.00
67840;BME280;54636;51.684;5.142;2023-02-03T01:08:54;102617.38;;;8.42;100.00
67840;BME280;54636;51.684;5.142;2023-02-03T01:11:22;102631.50;;;8.49;100.00
67840;BME280;54636;51.684;5.142;2023-02-03T01:13:49;102606.44;;;8.45;100.00
67840;BME280;54636;51.684;5.142;2023-02-03T01:16:17;102596.72;;;8.48;100.00
67840;BME280;54636;51.684;5.142;2023-02-03T01:18:43;102600.03;;;8.55;100.00
67840;BME280;54636;51.684;5.142;2023-02-03T01:21:12;102599.44;;;8.48;100.00
67840;BME280;54636;51.684;5.142;2023-02-03T01:23:38;102589.28;;;8.52;100.00
67840;BME280;54636;51.684;5.142;2023-02-03T01:26:08;102585.38;;;8.53;100.00
67840;BME280;54636;51.684;5.142;2023-02-03T01:28:34;102600.53;;;8.67;100.00
67840;BME280;54636;51.684;5.142;2023-02-03T01:31:10;102585.47;;;8.66;100.00
67840;BME280;54636;51.684;5.142;2023-02-03T01:33:36;102601.97;;;8.55;100.00
67840;BME280;54636;51.684;5.142;2023-02-03T01:36:06;102601.47;;;8.60;100.00
67840;BME280;54636;51.684;5.142;2023-02-03T01:38:32;102584.88;;;8.58;100.00
67840;BME280;54636;51.684;5.142;2023-02-03T01:40:57;102578.28;;;8.59;100.00
67840;BME280;54636;51.684;5.142;2023-02-03T01:43:43;102597.41;;;8.68;100.00
67840;BME280;54636;51.684;5.142;2023-02-03T01:49:09;102589.78;;;8.63;100.00
67840;BME280;54636;51.684;5.142;2023-02-03T01:51:38;102577.09;;;8.60;100.00
67840;BME280;54636;51.684;5.142;2023-02-03T01:54:07;102569.88;;;8.53;100.00
67840;BME280;54636;51.684;5.142;2023-02-03T01:56:35;102572.69;;;8.66;100.00
67840;BME280;54636;51.684;5.142;2023-02-03T01:59:03;102552.13;;;8.69;100.00
67840;BME280;54636;51.684;5.142;2023-02-03T02:01:30;102543.75;;;8.63;100.00
67840;BME280;54636;51.684;5.142;2023-02-03T02:03:58;102557.28;;;8.63;100.00
67840;BME280;54636;51.684;5.142;2023-02-03T02:06:26;102569.56;;;8.68;100.00
67840;BME280;54636;51.684;5.142;2023-02-03T02:08:52;102564.38;;;8.57;100.00
67840;BME280;54636;51.684;5.142;2023-02-03T02:11:18;102572.25;;;8.68;100.00
67840;BME280;54636;51.684;5.142;2023-02-03T02:13:46;102570.50;;;8.61;100.00
67840;BME280;54636;51.684;5.142;2023-02-03T02:21:36;102555.00;;;8.62;100.00
67840;BME280;54636;51.684;5.142;2023-02-03T02:32:48;102571.41;;;8.71;100.00
67840;BME280;54636;51.684;5.142;2023-02-03T02:38:04;102565.25;;;8.70;100.00
67840;BME280;54636;51.684;5.142;2023-02-03T02:41:00;102555.75;;;8.78;100.00
67840;BME280;54636;51.684;5.142;2023-02-03T02:46:09;102547.13;;;8.67;100.00
67840;BME280;54636;51.684;5.142;2023-02-03T02:51:10;102555.16;;;8.87;100.00
67840;BME280;54636;51.684;5.142;2023-02-03T02:53:40;102556.94;;;8.77;100.00
67840;BME280;54636;51.684;5.142;2023-02-03T02:56:09;102541.63;;;8.71;100.00
67840;BME280;54636;51.684;5.142;2023-02-03T02:58:37;102559.72;;;8.74;100.00
67840;BME280;54636;51.684;5.142;2023-02-03T03:01:07;102562.69;;;8.79;100.00
67840;BME280;54636;51.684;5.142;2023-02-03T03:03:33;102558.03;;;8.80;100.00
67840;BME280;54636;51.684;5.142;2023-02-03T03:06:05;102552.09;;;8.85;100.00
67840;BME280;54636;51.684;5.142;2023-02-03T03:08:43;102573.28;;;8.90;100.00
67840;BME280;54636;51.684;5.142;2023-02-03T03:11:10;102544.81;;;8.82;100.00
67840;BME280;54636;51.684;5.142;2023-02-03T03:13:47;102549.06;;;8.83;100.00
67840;BME280;54636;51.684;5.142;2023-02-03T03:16:15;102523.34;;;8.75;100.00
67840;BME280;54636;51.684;5.142;2023-02-03T03:18:48;102528.66;;;8.78;100.00
67840;BME280;54636;51.684;5.142;2023-02-03T03:21:21;102550.22;;;8.98;100.00
67840;BME280;54636;51.684;5.142;2023-02-03T03:23:50;102535.19;;;8.81;100.00
67840;BME280;54636;51.684;5.142;2023-02-03T03:26:22;102517.03;;;8.94;100.00
67840;BME280;54636;51.684;5.142;2023-02-03T03:28:57;102530.91;;;8.96;100.00
67840;BME280;54636;51.684;5.142;2023-02-03T03:31:25;102500.28;;;8.83;100.00
67840;BME280;54636;51.684;5.142;2023-02-03T03:33:51;102513.22;;;8.91;100.00
67840;BME280;54636;51.684;5.142;2023-02-03T03:36:38;102506.63;;;8.93;100.00
67840;BME280;54636;51.684;5.142;2023-02-03T03:41:55;102520.34;;;8.85;100.00
67840;BME280;54636;51.684;5.142;2023-02-03T03:44:26;102536.84;;;8.91;100.00
67840;BME280;54636;51.684;5.142;2023-02-03T03:47:00;102534.16;;;8.91;100.00
67840;BME280;54636;51.684;5.142;2023-02-03T03:49:30;102529.06;;;8.93;100.00
67840;BME280;54636;51.684;5.142;2023-02-03T03:52:00;102539.66;;;8.87;100.00
67840;BME280;54636;51.684;5.142;2023-02-03T03:54:27;102545.31;;;8.93;100.00
67840;BME280;54636;51.684;5.142;2023-02-03T03:57:01;102548.72;;;8.81;100.00
67840;BME280;54636;51.684;5.142;2023-02-03T03:59:31;102562.59;;;8.83;100.00
67840;BME280;54636;51.684;5.142;2023-02-03T04:01:58;102582.25;;;8.87;100.00
67840;BME280;54636;51.684;5.142;2023-02-03T04:04:29;102575.72;;;8.84;100.00
67840;BME280;54636;51.684;5.142;2023-02-03T04:06:56;102579.63;;;8.83;100.00
67840;BME280;54636;51.684;5.142;2023-02-03T04:09:21;102561.94;;;8.79;100.00
67840;BME280;54636;51.684;5.142;2023-02-03T04:11:47;102571.59;;;8.80;100.00
67840;BME280;54636;51.684;5.142;2023-02-03T04:14:33;102579.38;;;8.78;100.00
67840;BME280;54636;51.684;5.142;2023-02-03T04:16:59;102570.47;;;8.77;100.00
67840;BME280;54636;51.684;5.142;2023-02-03T04:19:25;102568.44;;;8.81;100.00
67840;BME280;54636;51.684;5.142;2023-02-03T04:21:50;102571.59;;;8.80;100.00
67840;BME280;54636;51.684;5.142;2023-02-03T04:24:16;102553.47;;;8.77;100.00
67840;BME280;54636;51.684;5.142;2023-02-03T04:26:41;102562.69;;;8.79;100.00
67840;BME280;54636;51.684;5.142;2023-02-03T04:29:07;102576.56;;;8.81;100.00
67840;BME280;54636;51.684;5.142;2023-02-03T04:31:33;102573.03;;;8.84;100.00
67840;BME280;54636;51.684;5.142;2023-02-03T04:33:59;102562.19;;;8.84;100.00
67840;BME280;54636;51.684;5.142;2023-02-03T04:36:24;102555.66;;;8.82;100.00
67840;BME280;54636;51.684;5.142;2023-02-03T04:38:50;102574.72;;;8.78;100.00
67840;BME280;54636;51.684;5.142;2023-02-03T04:41:16;102562.59;;;8.83;100.00
67840;BME280;54636;51.684;5.142;2023-02-03T04:43:41;102565.06;;;8.94;100.00
67840;BME280;54636;51.684;5.142;2023-02-03T04:46:06;102543.63;;;8.83;100.00
67840;BME280;54636;51.684;5.142;2023-02-03T04:48:32;102557.34;;;8.92;100.00
67840;BME280;54636;51.684;5.142;2023-02-03T04:51:05;102560.16;;;8.88;100.00
67840;BME280;54636;51.684;5.142;2023-02-03T04:53:31;102544.41;;;8.83;100.00
67840;BME280;54636;51.684;5.142;2023-02-03T04:55:56;102547.78;;;8.87;100.00
67840;BME280;54636;51.684;5.142;2023-02-03T04:58:21;102552.53;;;8.83;100.00
67840;BME280;54636;51.684;5.142;2023-02-03T05:00:47;102545.69;;;8.79;100.00
67840;BME280;54636;51.684;5.142;2023-02-03T05:03:12;102552.88;;;8.85;100.00
67840;BME280;54636;51.684;5.142;2023-02-03T05:05:38;102550.41;;;8.75;100.00
67840;BME280;54636;51.684;5.142;2023-02-03T05:08:03;102540.50;;;8.84;100.00
67840;BME280;54636;51.684;5.142;2023-02-03T05:10:29;102559.66;;;8.77;100.00
67840;BME280;54636;51.684;5.142;2023-02-03T05:12:54;102567.25;;;8.82;100.00
67840;BME280;54636;51.684;5.142;2023-02-03T05:15:20;102564.72;;;8.75;100.00
67840;BME280;54636;51.684;5.142;2023-02-03T05:17:45;102550.25;;;8.82;100.00
67840;BME280;54636;51.684;5.142;2023-02-03T05:20:11;102559.56;;;8.81;100.00
67840;BME280;54636;51.684;5.142;2023-02-03T05:22:36;102552.34;;;8.90;100.00
67840;BME280;54636;51.684;5.142;2023-02-03T05:25:03;102561.00;;;8.85;100.00
67840;BME280;54636;51.684;5.142;2023-02-03T05:27:28;102577.75;;;8.80;100.00
67840;BME280;54636;51.684;5.142;2023-02-03T05:29:54;102581.50;;;8.86;100.00
67840;BME280;54636;51.684;5.142;2023-02-03T05:32:19;102583.53;;;8.82;100.00
67840;BME280;54636;51.684;5.142;2023-02-03T05:34:45;102584.72;;;8.81;100.00
67840;BME280;54636;51.684;5.142;2023-02-03T05:37:10;102582.34;;;8.83;100.00
67840;BME280;54636;51.684;5.142;2023-02-03T05:39:35;102573.03;;;8.84;100.00
67840;BME280;54636;51.684;5.142;2023-02-03T05:42:01;102564.81;;;8.88;100.00
67840;BME280;54636;51.684;5.142;2023-02-03T05:44:27;102558.03;;;8.80;100.00
67840;BME280;54636;51.684;5.142;2023-02-03T05:46:54;102586.22;;;8.82;100.00
67840;BME280;54636;51.684;5.142;2023-02-03T05:49:21;102583.19;;;8.80;100.00
67840;BME280;54636;51.684;5.142;2023-02-03T05:51:53;102575.91;;;8.77;100.00
67840;BME280;54636;51.684;5.142;2023-02-03T05:54:19;102566.09;;;8.67;100.00
67840;BME280;54636;51.684;5.142;2023-02-03T05:56:44;102567.59;;;8.84;100.00
67840;BME280;54636;51.684;5.142;2023-02-03T05:59:10;102575.22;;;8.73;100.00
67840;BME280;54636;51.684;5.142;2023-02-03T06:01:35;102570.16;;;8.75;100.00
67840;BME280;54636;51.684;5.142;2023-02-03T06:04:01;102558.47;;;8.78;100.00
67840;BME280;54636;51.684;5.142;2023-02-03T06:06:27;102550.84;;;8.73;100.00
67840;BME280;54636;51.684;5.142;2023-02-03T06:09:01;102558.28;;;8.69;100.00
67840;BME280;54636;51.684;5.142;2023-02-03T06:11:27;102565.66;;;8.69;100.00
67840;BME280;54636;51.684;5.142;2023-02-03T06:13:54;102558.22;;;8.73;100.00
67840;BME280;54636;51.684;5.142;2023-02-03T06:16:20;102544.50;;;8.80;100.00
67840;BME280;54636;51.684;5.142;2023-02-03T06:18:45;102556.59;;;8.75;100.00
67840;BME280;54636;51.684;5.142;2023-02-03T06:21:11;102569.72;;;8.77;100.00
67840;BME280;54636;51.684;5.142;2023-02-03T06:23:36;102565.16;;;8.74;100.00
67840;BME280;54636;51.684;5.142;2023-02-03T06:26:01;102565.66;;;8.69;100.00
67840;BME280;54636;51.684;5.142;2023-02-03T06:28:27;102565.91;;;8.74;100.00
67840;BME280;54636;51.684;5.142;2023-02-03T06:30:52;102534.16;;;8.75;100.00
67840;BME280;54636;51.684;5.142;2023-02-03T06:33:18;102555.75;;;8.62;100.00
67840;BME280;54636;51.684;5.142;2023-02-03T06:35:44;102566.84;;;8.68;100.00
67840;BME280;54636;51.684;5.142;2023-02-03T06:38:09;102566.09;;;8.67;100.00
67840;BME280;54636;51.684;5.142;2023-02-03T06:40:35;102565.91;;;8.74;100.00
67840;BME280;54636;51.684;5.142;2023-02-03T06:43:00;102563.72;;;8.69;100.00
67840;BME280;54636;51.684;5.142;2023-02-03T06:45:26;102569.81;;;8.73;100.00
67840;BME280;54636;51.684;5.142;2023-02-03T06:47:51;102569.72;;;8.77;100.00
67840;BME280;54636;51.684;5.142;2023-02-03T06:50:17;102544.16;;;8.78;100.00
67840;BME280;54636;51.684;5.142;2023-02-03T06:52:42;102543.91;;;8.72;100.00
67840;BME280;54636;51.684;5.142;2023-02-03T06:55:08;102556.59;;;8.75;100.00
67840;BME280;54636;51.684;5.142;2023-02-03T06:57:33;102560.25;;;8.69;100.00
67840;BME280;54636;51.684;5.142;2023-02-03T06:59:59;102573.69;;;8.72;100.00
67840;BME280;54636;51.684;5.142;2023-02-03T07:02:24;102571.66;;;8.76;100.00
67840;BME280;54636;51.684;5.142;2023-02-03T07:04:50;102578.44;;;8.84;100.00
67840;BME280;54636;51.684;5.142;2023-02-03T07:07:15;102587.16;;;8.76;100.00
67840;BME280;54636;51.684;5.142;2023-02-03T07:09:41;102601.56;;;8.73;100.00
67840;BME280;54636;51.684;5.142;2023-02-03T07:12:07;102589.19;;;8.72;100.00
67840;BME280;54636;51.684;5.142;2023-02-03T07:14:33;102617.31;;;8.78;100.00
67840;BME280;54636;51.684;5.142;2023-02-03T07:17:04;102609.25;;;8.74;100.00
67840;BME280;54636;51.684;5.142;2023-02-03T07:19:30;102616.38;;;8.68;100.00
67840;BME280;54636;51.684;5.142;2023-02-03T07:21:55;102609.69;;;8.73;100.00
67840;BME280;54636;51.684;5.142;2023-02-03T07:24:20;102596.91;;;8.73;100.00
67840;BME280;54636;51.684;5.142;2023-02-03T07:26:46;102613.41;;;8.79;100.00
67840;BME280;54636;51.684;5.142;2023-02-03T07:29:11;102604.59;;;8.75;100.00
67840;BME280;54636;51.684;5.142;2023-02-03T07:31:38;102601.91;;;8.75;100.00
67840;BME280;54636;51.684;5.142;2023-02-03T07:34:03;102607.41;;;8.87;100.00
67840;BME280;54636;51.684;5.142;2023-02-03T07:36:29;102612.31;;;8.76;100.00
67840;BME280;54636;51.684;5.142;2023-02-03T07:38:55;102612.06;;;8.71;100.00
67840;BME280;54636;51.684;5.142;2023-02-03T07:41:20;102617.06;;;8.72;100.00
67840;BME280;54636;51.684;5.142;2023-02-03T07:43:45;102616.28;;;8.72;100.00
67840;BME280;54636;51.684;5.142;2023-02-03T07:46:11;102617.91;;;8.85;100.00
67840;BME280;54636;51.684;5.142;2023-02-03T07:48:37;102623.22;;;8.73;100.00
67840;BME280;54636;51.684;5.142;2023-02-03T07:51:02;102632.03;;;8.77;100.00
67840;BME280;54636;51.684;5.142;2023-02-03T07:53:28;102623.31;;;8.69;100.00
67840;BME280;54636;51.684;5.142;2023-02-03T07:55:53;102627.63;;;8.67;100.00
67840;BME280;54636;51.684;5.142;2023-02-03T07:58:18;102620.53;;;8.73;100.00
67840;BME280;54636;51.684;5.142;2023-02-03T08:00:44;102627.81;;;8.76;100.00
67840;BME280;54636;51.684;5.142;2023-02-03T08:03:09;102623.66;;;8.71;100.00
67840;BME280;54636;51.684;5.142;2023-02-03T08:05:35;102636.09;;;8.69;100.00
67840;BME280;54636;51.684;5.142;2023-02-03T08:08:00;102630.59;;;8.72;100.00
67840;BME280;54636;51.684;5.142;2023-02-03T08:10:25;102640.16;;;8.77;100.00
67840;BME280;54636;51.684;5.142;2023-02-03T08:12:54;102640.84;;;8.65;100.00
67840;BME280;54636;51.684;5.142;2023-02-03T08:15:20;102651.16;;;8.70;100.00
67840;BME280;54636;51.684;5.142;2023-02-03T08:17:47;102656.59;;;8.70;100.00
67840;BME280;54636;51.684;5.142;2023-02-03T08:20:13;102651.16;;;8.70;100.00
67840;BME280;54636;51.684;5.142;2023-02-03T08:22:38;102650.41;;;8.69;100.00
67840;BME280;54636;51.684;5.142;2023-02-03T08:25:04;102655.81;;;8.69;100.00
67840;BME280;54636;51.684;5.142;2023-02-03T08:27:30;102650.59;;;8.78;100.00
67840;BME280;54636;51.684;5.142;2023-02-03T08:29:56;102648.38;;;8.73;100.00
67840;BME280;54636;51.684;5.142;2023-02-03T08:32:22;102656.66;;;8.66;100.00
67840;BME280;54636;51.684;5.142;2023-02-03T08:34:51;102672.84;;;8.86;100.00
67840;BME280;54636;51.684;5.142;2023-02-03T08:37:19;102677.41;;;8.73;100.00
67840;BME280;54636;51.684;5.142;2023-02-03T08:39:44;102684.28;;;8.77;100.00
67840;BME280;54636;51.684;5.142;2023-02-03T08:42:10;102672.94;;;8.82;100.00
67840;BME280;54636;51.684;5.142;2023-02-03T08:44:35;102679.88;;;8.83;100.00
67840;BME280;54636;51.684;5.142;2023-02-03T08:47:03;102681.59;;;8.94;100.00
67840;BME280;54636;51.684;5.142;2023-02-03T08:49:29;102684.81;;;8.88;100.00
67840;BME280;54636;51.684;5.142;2023-02-03T08:51:55;102669.63;;;8.91;100.00
67840;BME280;54636;51.684;5.142;2023-02-03T08:54:21;102677.09;;;9.03;100.00
67840;BME280;54636;51.684;5.142;2023-02-03T08:56:47;102671.72;;;9.16;100.00
67840;BME280;54636;51.684;5.142;2023-02-03T08:59:12;102687.09;;;9.06;100.00
67840;BME280;54636;51.684;5.142;2023-02-03T09:01:39;102688.19;;;9.09;100.00
67840;BME280;54636;51.684;5.142;2023-02-03T09:04:06;102694.00;;;9.23;100.00
67840;BME280;54636;51.684;5.142;2023-02-03T09:06:34;102691.91;;;9.15;100.00
67840;BME280;54636;51.684;5.142;2023-02-03T09:08:59;102683.00;;;9.31;100.00
67840;BME280;54636;51.684;5.142;2023-02-03T09:11:25;102691.72;;;9.22;100.00
67840;BME280;54636;51.684;5.142;2023-02-03T09:13:50;102692.56;;;9.19;100.00
67840;BME280;54636;51.684;5.142;2023-02-03T09:16:17;102701.22;;;9.30;100.00
67840;BME280;54636;51.684;5.142;2023-02-03T09:18:44;102699.78;;;9.25;100.00
67840;BME280;54636;51.684;5.142;2023-02-03T09:21:11;102682.38;;;9.39;100.00
67840;BME280;54636;51.684;5.142;2023-02-03T09:23:37;102686.88;;;9.30;100.00
67840;BME280;54636;51.684;5.142;2023-02-03T09:26:03;102697.13;;;9.38;100.00
67840;BME280;54636;51.684;5.142;2023-02-03T09:28:29;102699.00;;;9.25;100.00
67840;BME280;54636;51.684;5.142;2023-02-03T09:31:01;102716.72;;;9.30;100.00
67840;BME280;54636;51.684;5.142;2023-02-03T09:33:27;102720.69;;;9.25;100.00
67840;BME280;54636;51.684;5.142;2023-02-03T09:35:53;102716.81;;;9.26;100.00
67840;BME280;54636;51.684;5.142;2023-02-03T09:38:19;102723.59;;;9.34;100.00
67840;BME280;54636;51.684;5.142;2023-02-03T09:40:49;102723.41;;;9.25;100.00
67840;BME280;54636;51.684;5.142;2023-02-03T09:43:30;102720.94;;;9.31;100.00
67840;BME280;54636;51.684;5.142;2023-02-03T09:46:11;102741.53;;;9.28;100.00
67840;BME280;54636;51.684;5.142;2023-02-03T09:48:42;102743.00;;;9.33;100.00
67840;BME280;54636;51.684;5.142;2023-02-03T09:51:22;102733.50;;;9.41;100.00
67840;BME280;54636;51.684;5.142;2023-02-03T09:53:53;102725.78;;;9.39;100.00
67840;BME280;54636;51.684;5.142;2023-02-03T09:56:33;102721.97;;;9.37;100.00
67840;BME280;54636;51.684;5.142;2023-02-03T09:59:00;102734.41;;;9.50;100.00
67840;BME280;54636;51.684;5.142;2023-02-03T10:01:54;102714.41;;;9.61;100.00
67840;BME280;54636;51.684;5.142;2023-02-03T10:04:37;102723.97;;;9.65;100.00
67840;BME280;54636;51.684;5.142;2023-02-03T10:07:32;102723.78;;;9.72;100.00
67840;BME280;54636;51.684;5.142;2023-02-03T10:15:33;102731.09;;;10.17;100.00
67840;BME280;54636;51.684;5.142;2023-02-03T10:18:09;102744.41;;;10.28;100.00
67840;BME280;54636;51.684;5.142;2023-02-03T10:20:50;102733.88;;;10.30;100.00
67840;BME280;54636;51.684;5.142;2023-02-03T10:23:18;102742.25;;;10.48;100.00
67840;BME280;54636;51.684;5.142;2023-02-03T10:25:49;102727.91;;;10.47;100.00
67840;BME280;54636;51.684;5.142;2023-02-03T10:28:25;102731.63;;;10.53;100.00
67840;BME280;54636;51.684;5.142;2023-02-03T10:30:57;102714.13;;;10.54;99.51
67840;BME280;54636;51.684;5.142;2023-02-03T10:33:28;102726.72;;;10.61;100.00
67840;BME280;54636;51.684;5.142;2023-02-03T10:36:10;102738.16;;;10.69;100.00
67840;BME280;54636;51.684;5.142;2023-02-03T10:41:23;102739.03;;;10.78;98.67
67840;BME280;54636;51.684;5.142;2023-02-03T10:43:50;102738.50;;;10.96;97.61
67840;BME280;54636;51.684;5.142;2023-02-03T10:46:26;102751.09;;;11.03;97.04
67840;BME280;54636;51.684;5.142;2023-02-03T10:48:52;102746.88;;;11.02;96.80
67840;BME280;54636;51.684;5.142;2023-02-03T10:51:24;102742.06;;;11.06;97.27
67840;BME280;54636;51.684;5.142;2023-02-03T10:53:51;102745.03;;;10.99;96.36
67840;BME280;54636;51.684;5.142;2023-02-03T10:56:25;102758.63;;;10.99;97.17
67840;BME280;54636;51.684;5.142;2023-02-03T10:58:54;102752.41;;;10.98;97.38
67840;BME280;54636;51.684;5.142;2023-02-03T11:01:23;102756.41;;;11.06;97.20
67840;BME280;54636;51.684;5.142;2023-02-03T11:03:54;102759.13;;;11.19;96.65
67840;BME280;54636;51.684;5.142;2023-02-03T11:06:21;102760.13;;;11.00;96.05
67840;BME280;54636;51.684;5.142;2023-02-03T11:08:48;102759.38;;;10.86;96.63
67840;BME280;54636;51.684;5.142;2023-02-03T11:11:20;102769.72;;;10.92;97.61
67840;BME280;54636;51.684;5.142;2023-02-03T11:13:51;102774.59;;;10.84;97.26
67840;BME280;54636;51.684;5.142;2023-02-03T11:16:18;102769.38;;;10.77;97.13
67840;BME280;54636;51.684;5.142;2023-02-03T11:21:21;102754.78;;;10.71;97.31
67840;BME280;54636;51.684;5.142;2023-02-03T11:26:21;102752.72;;;10.75;97.89
67840;BME280;54636;51.684;5.142;2023-02-03T11:28:50;102763.81;;;10.80;98.39
67840;BME280;54636;51.684;5.142;2023-02-03T11:31:26;102753.28;;;10.82;98.83
67840;BME280;54636;51.684;5.142;2023-02-03T11:34:16;102750.13;;;10.97;98.00
67840;BME280;54636;51.684;5.142;2023-02-03T11:36:43;102752.53;;;10.95;97.66
67840;BME280;54636;51.684;5.142;2023-02-03T11:41:46;102740.66;;;11.01;97.05
67840;BME280;54636;51.684;5.142;2023-02-03T11:44:19;102758.41;;;10.93;97.60
67840;BME280;54636;51.684;5.142;2023-02-03T11:46:53;102762.84;;;11.00;97.61
67840;BME280;54636;51.684;5.142;2023-02-03T11:55:03;102748.25;;;11.06;97.74
67840;BME280;54636;51.684;5.142;2023-02-03T11:57:49;102747.19;;;11.04;97.27
67840;BME280;54636;51.684;5.142;2023-02-03T12:05:46;102748.34;;;11.15;96.81
67840;BME280;54636;51.684;5.142;2023-02-03T12:08:54;102749.34;;;11.09;97.64
67840;BME280;54636;51.684;5.142;2023-02-03T12:14:46;102748.28;;;10.94;98.25
67840;BME280;54636;51.684;5.142;2023-02-03T12:20:13;102748.50;;;10.86;98.40
67840;BME280;54636;51.684;5.142;2023-02-03T12:26:15;102754.91;;;10.80;99.66
67840;BME280;54636;51.684;5.142;2023-02-03T12:28:49;102750.56;;;10.82;98.84
67840;BME280;54636;51.684;5.142;2023-02-03T12:31:26;102763.06;;;10.80;99.19
67840;BME280;54636;51.684;5.142;2023-02-03T12:34:09;102748.81;;;10.76;99.60
67840;BME280;54636;51.684;5.142;2023-02-03T12:36:47;102758.16;;;10.75;99.33
67840;BME280;54636;51.684;5.142;2023-02-03T12:39:22;102760.44;;;10.76;99.05
67840;BME280;54636;51.684;5.142;2023-02-03T12:42:49;102765.13;;;10.76;99.90
67840;BME280;54636;51.684;5.142;2023-02-03T12:45:10;102768.94;;;10.78;99.81
67840;BME280;54636;51.684;5.142;2023-02-03T12:47:49;102779.81;;;10.91;98.78
67840;BME280;54636;51.684;5.142;2023-02-03T12:50:41;102776.66;;;10.93;99.14
67840;BME280;54636;51.684;5.142;2023-02-03T12:58:36;102787.28;;;11.38;97.05
67840;BME280;54636;51.684;5.142;2023-02-03T13:01:08;102787.81;;;11.45;96.77
67840;BME280;54636;51.684;5.142;2023-02-03T13:04:07;102783.78;;;11.50;96.65
67840;BME280;54636;51.684;5.142;2023-02-03T13:11:57;102791.72;;;11.57;95.64
67840;BME280;54636;51.684;5.142;2023-02-03T13:14:32;102789.31;;;11.59;96.65
67840;BME280;54636;51.684;5.142;2023-02-03T13:17:16;102790.28;;;11.65;95.98
67840;BME280;54636;51.684;5.142;2023-02-03T13:19:49;102776.72;;;11.52;95.08
67840;BME280;54636;51.684;5.142;2023-02-03T13:22:17;102780.84;;;11.57;95.19
67840;BME280;54636;51.684;5.142;2023-02-03T13:24:48;102783.13;;;11.59;94.85
67840;BME280;54636;51.684;5.142;2023-02-03T13:27:35;102795.00;;;11.52;95.63
67840;BME280;54636;51.684;5.142;2023-02-03T13:33:02;102804.69;;;11.28;95.85
67840;BME280;54636;51.684;5.142;2023-02-03T13:38:49;102811.78;;;11.12;97.15
67840;BME280;54636;51.684;5.142;2023-02-03T13:41:24;102813.09;;;11.08;96.87
67840;BME280;54636;51.684;5.142;2023-02-03T13:43:54;102819.84;;;11.03;97.33
67840;BME280;54636;51.684;5.142;2023-02-03T13:46:31;102816.25;;;10.94;98.74
67840;BME280;54636;51.684;5.142;2023-02-03T13:48:59;102804.19;;;10.95;98.12
67840;BME280;54636;51.684;5.142;2023-02-03T13:51:29;102808.84;;;10.94;98.58
67840;BME280;54636;51.684;5.142;2023-02-03T13:54:07;102813.97;;;11.05;98.56
67840;BME280;54636;51.684;5.142;2023-02-03T13:56:33;102809.84;;;11.00;97.66
67840;BME280;54636;51.684;5.142;2023-02-03T13:59:42;102816.59;;;10.96;99.04
67840;BME280;54636;51.684;5.142;2023-02-03T14:07:38;102810.59;;;10.88;100.00
67840;BME280;54636;51.684;5.142;2023-02-03T14:17:53;102820.97;;;10.64;100.00
67840;BME280;54636;51.684;5.142;2023-02-03T14:23:05;102819.09;;;10.48;100.00
67840;BME280;54636;51.684;5.142;2023-02-03T14:25:40;102803.97;;;10.35;100.00
67840;BME280;54636;51.684;5.142;2023-02-03T14:28:12;102808.16;;;10.23;100.00
67840;BME280;54636;51.684;5.142;2023-02-03T14:31:18;102833.72;;;10.26;100.00
67840;BME280;54636;51.684;5.142;2023-02-03T14:38:58;102844.91;;;10.11;100.00
67840;BME280;54636;51.684;5.142;2023-02-03T14:44:28;102847.19;;;10.13;100.00
67840;BME280;54636;51.684;5.142;2023-02-03T14:47:09;102853.31;;;10.17;100.00